Time;durP1;ratioP1;P1;durP2;ratioP2;P2;SDS_P1;SDS_P2;PMS_P1;PMS_P2;Temp;Humidity;BMP_temperature;BMP_pressure;BME280_temperature;BME280_humidity;BME280_pressure;Samples;Min_cycle;Max_cycle;Signal;HPM_P1;HPM_P2
2024/02/01 00:01:56;;;;;;;13.97;11.27;;;;;;;;;;5072712;28;20408;-83
2024/02/01 00:04:22;;;;;;;12.03;9.03;;;;;;;;;;5079020;28;20466;-82
2024/02/01 00:06:51;;;;;;;14.50;10.93;;;;;;;;;;5092578;28;20425;-82
2024/02/01 00:09:17;;;;;;;16.23;10.60;;;;;;;;;;5092502;28;20494;-86
2024/02/01 00:11:43;;;;;;;13.60;9.77;;;;;;;;;;5092640;28;20923;-84
2024/02/01 00:14:09;;;;;;;15.63;10.70;;;;;;;;;;5092558;28;20446;-84
2024/02/01 00:16:34;;;;;;;12.10;8.83;;;;;;;;;;5093886;28;20410;-85
2024/02/01 00:19:00;;;;;;;14.60;10.77;;;;;;;;;;5096212;28;20406;-84
2024/02/01 00:21:26;;;;;;;14.00;11.17;;;;;;;;;;5078281;28;21112;-81
2024/02/01 00:23:52;;;;;;;14.40;10.10;;;;;;;;;;5096530;28;20417;-85
2024/02/01 00:26:20;;;;;;;15.27;12.07;;;;;;;;;;5096490;28;20470;-84
2024/02/01 00:28:46;;;;;;;15.83;11.60;;;;;;;;;;5078076;28;20413;-80
2024/02/01 00:31:12;;;;;;;15.20;12.03;;;;;;;;;;5078218;28;20434;-86
2024/02/01 00:33:38;;;;;;;15.27;10.80;;;;;;;;;;5083044;28;20418;-84
2024/02/01 00:36:05;;;;;;;15.73;12.77;;;;;;;;;;5096342;28;20414;-85
2024/02/01 00:38:30;;;;;;;17.67;11.47;;;;;;;;;;5096249;28;20409;-85
2024/02/01 00:40:56;;;;;;;19.20;12.87;;;;;;;;;;5096257;28;20776;-80
2024/02/01 00:43:22;;;;;;;15.50;12.70;;;;;;;;;;5096162;28;20589;-80
2024/02/01 00:45:48;;;;;;;16.87;11.70;;;;;;;;;;5096067;28;20473;-84
2024/02/01 00:48:16;;;;;;;15.30;13.30;;;;;;;;;;5077824;28;20416;-84
2024/02/01 00:50:42;;;;;;;17.20;12.97;;;;;;;;;;5096108;28;20420;-86
2024/02/01 00:53:08;;;;;;;19.63;12.20;;;;;;;;;;5077507;28;20415;-81
2024/02/01 00:55:46;;;;;;;15.27;11.93;;;;;;;;;;5084744;28;20432;-82
2024/02/01 00:58:11;;;;;;;20.27;13.90;;;;;;;;;;5094661;28;20429;-85
2024/02/01 01:00:37;;;;;;;15.40;13.30;;;;;;;;;;5095844;28;20553;-81
2024/02/01 01:03:03;;;;;;;14.40;11.53;;;;;;;;;;5095290;28;20784;-83
2024/02/01 01:05:29;;;;;;;15.57;13.07;;;;;;;;;;5078369;28;20558;-83
2024/02/01 01:07:55;;;;;;;21.10;13.20;;;;;;;;;;5075716;28;20437;-83
2024/02/01 01:10:21;;;;;;;18.90;13.37;;;;;;;;;;5075637;28;20421;-83
2024/02/01 01:12:47;;;;;;;21.00;14.07;;;;;;;;;;5075607;28;20413;-84
2024/02/01 01:15:13;;;;;;;18.97;13.70;;;;;;;;;;5075660;28;20794;-83
2024/02/01 01:17:39;;;;;;;15.03;12.60;;;;;;;;;;5075378;28;20885;-81
2024/02/01 01:20:05;;;;;;;21.47;13.10;;;;;;;;;;5057087;28;20434;-82
2024/02/01 01:22:31;;;;;;;16.93;12.80;;;;;;;;;;5075441;28;20414;-83
2024/02/01 01:24:57;;;;;;;14.73;13.10;;;;;;;;;;5075249;28;20535;-84
2024/02/01 01:27:23;;;;;;;19.10;13.87;;;;;;;;;;5084347;28;20427;-84
2024/02/01 01:29:49;;;;;;;14.33;12.67;;;;;;;;;;5076997;28;20479;-84
2024/02/01 01:32:15;;;;;;;16.17;13.77;;;;;;;;;;5095271;28;20415;-83
2024/02/01 01:34:41;;;;;;;15.57;13.17;;;;;;;;;;5094967;28;20422;-82
2024/02/01 01:37:07;;;;;;;18.30;13.77;;;;;;;;;;5095373;28;20411;-79
2024/02/01 01:39:33;;;;;;;19.30;12.83;;;;;;;;;;5095178;28;20414;-80
2024/02/01 01:41:59;;;;;;;20.77;13.77;;;;;;;;;;5078418;28;20431;-80
2024/02/01 01:44:25;;;;;;;20.43;14.80;;;;;;;;;;5056960;28;20474;-81
2024/02/01 01:46:51;;;;;;;17.67;12.23;;;;;;;;;;5094806;28;20492;-80
2024/02/01 01:49:17;;;;;;;19.87;14.73;;;;;;;;;;5094553;28;20411;-80
2024/02/01 01:51:46;;;;;;;18.50;13.53;;;;;;;;;;5094761;28;20445;-80
2024/02/01 01:54:12;;;;;;;20.83;14.37;;;;;;;;;;5091939;28;20420;-81
2024/02/01 01:56:38;;;;;;;17.20;13.77;;;;;;;;;;5094060;28;20413;-80
2024/02/01 01:59:05;;;;;;;18.30;13.57;;;;;;;;;;5094912;28;20410;-81
2024/02/01 02:01:32;;;;;;;16.67;12.40;;;;;;;;;;5094559;28;20461;-81
2024/02/01 02:03:58;;;;;;;18.80;13.70;;;;;;;;;;5094659;28;20778;-80
2024/02/01 02:06:24;;;;;;;20.40;15.00;;;;;;;;;;5094896;28;20417;-80
2024/02/01 02:08:50;;;;;;;17.90;13.10;;;;;;;;;;5094626;28;20412;-81
2024/02/01 02:11:16;;;;;;;20.97;14.63;;;;;;;;;;5094790;28;20441;-80
2024/02/01 02:13:48;;;;;;;16.87;14.00;;;;;;;;;;5094726;28;20423;-81
2024/02/01 02:16:17;;;;;;;17.13;12.90;;;;;;;;;;5094707;28;20491;-80
2024/02/01 02:18:43;;;;;;;18.57;14.00;;;;;;;;;;5085648;28;20407;-80
2024/02/01 02:21:11;;;;;;;16.40;13.30;;;;;;;;;;5084957;28;20408;-81
2024/02/01 02:23:37;;;;;;;15.93;12.80;;;;;;;;;;5083758;28;20421;-81
2024/02/01 02:26:05;;;;;;;17.03;12.60;;;;;;;;;;5083283;28;20458;-80
2024/02/01 02:28:35;;;;;;;15.80;11.70;;;;;;;;;;5084976;28;20412;-81
2024/02/01 02:31:01;;;;;;;17.90;13.30;;;;;;;;;;5084383;28;20468;-80
2024/02/01 02:33:27;;;;;;;19.60;13.77;;;;;;;;;;5082272;28;20429;-81
2024/02/01 02:35:53;;;;;;;15.80;11.20;;;;;;;;;;5084478;28;20910;-81
2024/02/01 02:38:22;;;;;;;16.60;11.43;;;;;;;;;;5083557;28;20409;-81
2024/02/01 02:40:48;;;;;;;15.57;11.73;;;;;;;;;;5082253;28;20412;-81
2024/02/01 02:43:14;;;;;;;14.87;12.20;;;;;;;;;;5084197;28;20399;-82
2024/02/01 02:45:40;;;;;;;13.77;11.90;;;;;;;;;;5083765;28;20961;-81
2024/02/01 02:48:09;;;;;;;15.40;10.17;;;;;;;;;;5082063;28;20504;-82
2024/02/01 02:50:35;;;;;;;14.90;12.33;;;;;;;;;;5083971;28;20406;-80
2024/02/01 02:53:00;;;;;;;16.60;10.67;;;;;;;;;;5083733;28;20413;-81
2024/02/01 02:55:26;;;;;;;13.33;9.90;;;;;;;;;;5082311;28;20914;-81
2024/02/01 02:57:52;;;;;;;15.20;10.10;;;;;;;;;;5065926;28;20415;-80
2024/02/01 03:00:18;;;;;;;12.40;8.80;;;;;;;;;;5073412;28;20905;-80
2024/02/01 03:02:47;;;;;;;12.17;8.70;;;;;;;;;;5082002;28;20893;-80
2024/02/01 03:05:15;;;;;;;11.77;8.83;;;;;;;;;;5082337;28;20488;-82
2024/02/01 03:07:41;;;;;;;10.23;7.67;;;;;;;;;;5082893;28;20416;-81
2024/02/01 03:10:07;;;;;;;11.53;9.17;;;;;;;;;;5073493;28;20441;-82
2024/02/01 03:12:33;;;;;;;12.37;8.77;;;;;;;;;;5073437;28;20401;-81
2024/02/01 03:14:59;;;;;;;10.33;8.70;;;;;;;;;;5073480;28;20420;-83
2024/02/01 03:17:25;;;;;;;9.13;6.33;;;;;;;;;;5073305;28;20487;-80
2024/02/01 03:19:57;;;;;;;10.83;7.90;;;;;;;;;;5071673;28;20870;-80
2024/02/01 03:22:24;;;;;;;12.17;7.50;;;;;;;;;;5072076;28;20943;-80
2024/02/01 03:24:58;;;;;;;9.30;7.00;;;;;;;;;;5073336;28;20508;-80
2024/02/01 03:27:24;;;;;;;13.30;6.90;;;;;;;;;;5083919;28;20439;-80
2024/02/01 03:29:51;;;;;;;12.80;6.63;;;;;;;;;;5084067;28;20458;-80
2024/02/01 03:32:18;;;;;;;8.93;7.50;;;;;;;;;;5093362;28;20412;-83
2024/02/01 03:34:44;;;;;;;11.47;7.70;;;;;;;;;;5074864;28;20417;-81
2024/02/01 03:37:14;;;;;;;19.13;9.30;;;;;;;;;;5093219;28;20465;-83
2024/02/01 03:39:40;;;;;;;12.67;7.87;;;;;;;;;;5093288;28;20494;-81
2024/02/01 03:42:06;;;;;;;12.40;7.63;;;;;;;;;;5093152;28;20771;-82
2024/02/01 03:44:37;;;;;;;12.17;7.43;;;;;;;;;;5093578;28;20464;-82
2024/02/01 03:47:09;;;;;;;14.83;8.60;;;;;;;;;;5093168;28;20511;-82
2024/02/01 03:49:37;;;;;;;9.80;6.53;;;;;;;;;;5092878;28;20993;-82
2024/02/01 03:52:03;;;;;;;14.20;5.90;;;;;;;;;;5075019;28;20417;-80
2024/02/01 03:54:31;;;;;;;15.60;7.77;;;;;;;;;;5075058;28;20917;-83
2024/02/01 03:57:00;;;;;;;12.30;5.80;;;;;;;;;;5093197;28;20418;-80
2024/02/01 03:59:32;;;;;;;10.27;6.03;;;;;;;;;;5092850;28;20830;-81
2024/02/01 04:02:04;;;;;;;15.67;6.13;;;;;;;;;;5093109;28;20455;-82
2024/02/01 04:04:31;;;;;;;8.40;5.70;;;;;;;;;;5093781;28;20467;-82
2024/02/01 04:06:57;;;;;;;10.90;6.07;;;;;;;;;;5103127;28;20968;-80
2024/02/01 04:09:24;;;;;;;11.40;6.60;;;;;;;;;;5079269;28;20425;-82
2024/02/01 04:11:50;;;;;;;12.67;6.27;;;;;;;;;;5093048;28;20743;-82
2024/02/01 04:14:15;;;;;;;9.20;4.90;;;;;;;;;;5103059;28;20427;-82
2024/02/01 04:16:41;;;;;;;10.90;6.07;;;;;;;;;;5094998;28;20431;-82
2024/02/01 04:19:07;;;;;;;15.80;6.30;;;;;;;;;;5113018;28;20767;-81
2024/02/01 04:21:33;;;;;;;12.30;5.60;;;;;;;;;;5113228;28;20407;-82
2024/02/01 04:24:04;;;;;;;10.80;6.33;;;;;;;;;;5113055;28;20412;-81
2024/02/01 04:26:30;;;;;;;9.07;4.97;;;;;;;;;;5113294;28;20451;-81
2024/02/01 04:28:56;;;;;;;13.50;5.20;;;;;;;;;;5112882;28;20449;-83
2024/02/01 04:31:22;;;;;;;14.20;5.13;;;;;;;;;;5113242;28;20423;-83
2024/02/01 04:33:50;;;;;;;19.80;5.93;;;;;;;;;;5112737;28;20885;-84
2024/02/01 04:36:16;;;;;;;16.57;5.73;;;;;;;;;;5113187;28;20410;-84
2024/02/01 04:38:42;;;;;;;11.03;5.00;;;;;;;;;;5113140;28;21213;-83
2024/02/01 04:41:10;;;;;;;8.00;4.10;;;;;;;;;;5113103;28;20416;-83
2024/02/01 04:43:36;;;;;;;11.30;6.07;;;;;;;;;;5113151;28;20424;-84
2024/02/01 04:46:02;;;;;;;13.50;4.67;;;;;;;;;;5112983;28;20472;-83
2024/02/01 04:48:29;;;;;;;16.87;4.50;;;;;;;;;;5112728;28;20407;-83
2024/02/01 04:50:55;;;;;;;16.83;6.40;;;;;;;;;;5112965;28;20430;-80
2024/02/01 04:53:21;;;;;;;13.10;4.97;;;;;;;;;;5113885;28;20416;-77
2024/02/01 04:55:50;;;;;;;16.03;4.97;;;;;;;;;;5113749;28;20397;-82
2024/02/01 04:58:16;;;;;;;13.10;4.43;;;;;;;;;;5113442;28;20399;-76
2024/02/01 05:00:41;;;;;;;9.90;3.60;;;;;;;;;;5113295;28;20430;-84
2024/02/01 05:03:07;;;;;;;19.53;3.70;;;;;;;;;;5115049;28;20471;-78
2024/02/01 05:05:33;;;;;;;15.00;4.13;;;;;;;;;;5098524;28;20587;-85
2024/02/01 05:07:59;;;;;;;15.80;3.97;;;;;;;;;;5116679;28;20408;-78
2024/02/01 05:10:25;;;;;;;30.17;6.97;;;;;;;;;;5116779;28;20424;-78
2024/02/01 05:12:53;;;;;;;10.70;3.90;;;;;;;;;;5098237;28;20930;-77
2024/02/01 05:15:19;;;;;;;18.23;4.53;;;;;;;;;;5116257;28;20774;-86
2024/02/01 05:17:45;;;;;;;17.67;4.60;;;;;;;;;;5098197;28;20411;-85
2024/02/01 05:20:11;;;;;;;13.10;2.93;;;;;;;;;;5116839;28;20513;-85
2024/02/01 05:22:38;;;;;;;16.70;3.90;;;;;;;;;;5118949;28;20399;-85
2024/02/01 05:25:18;;;;;;;17.13;3.70;;;;;;;;;;5122166;28;20842;-86
2024/02/01 05:27:50;;;;;;;17.13;4.10;;;;;;;;;;5117201;28;20409;-77
2024/02/01 05:30:16;;;;;;;17.97;3.97;;;;;;;;;;5118675;28;20465;-77
2024/02/01 05:32:51;;;;;;;16.83;5.47;;;;;;;;;;5098964;28;20410;-82
2024/02/01 05:35:17;;;;;;;20.63;6.03;;;;;;;;;;5117493;28;20424;-76
2024/02/01 05:37:46;;;;;;;17.43;5.00;;;;;;;;;;5117330;28;20417;-77
2024/02/01 05:40:16;;;;;;;30.80;3.87;;;;;;;;;;5117130;28;20834;-80
2024/02/01 05:42:42;;;;;;;17.97;3.97;;;;;;;;;;5120947;28;20417;-87
2024/02/01 05:45:08;;;;;;;22.60;3.93;;;;;;;;;;5098005;28;20974;-90
2024/02/01 05:47:34;;;;;;;22.37;4.00;;;;;;;;;;5118093;28;20423;-86
2024/02/01 05:50:00;;;;;;;20.57;3.70;;;;;;;;;;5120134;28;20431;-83
2024/02/01 05:52:26;;;;;;;27.10;4.00;;;;;;;;;;5118153;28;20890;-76
2024/02/01 05:54:54;;;;;;;20.50;3.50;;;;;;;;;;5117029;28;20489;-87
2024/02/01 05:57:20;;;;;;;17.27;3.40;;;;;;;;;;5116212;28;20416;-77
2024/02/01 05:59:46;;;;;;;22.60;4.17;;;;;;;;;;5115900;28;20399;-76
2024/02/01 06:02:12;;;;;;;16.80;3.67;;;;;;;;;;5115605;28;20417;-81
2024/02/01 06:04:38;;;;;;;16.10;3.50;;;;;;;;;;5115751;28;20462;-79
2024/02/01 06:07:06;;;;;;;22.33;5.13;;;;;;;;;;5115592;28;20418;-80
2024/02/01 06:09:32;;;;;;;16.00;3.50;;;;;;;;;;5115870;28;20430;-82
2024/02/01 06:11:58;;;;;;;24.83;3.80;;;;;;;;;;5097702;28;20455;-76
2024/02/01 06:14:24;;;;;;;22.33;3.67;;;;;;;;;;5114801;28;20976;-83
2024/02/01 06:16:50;;;;;;;25.83;4.40;;;;;;;;;;5115445;28;20411;-80
2024/02/01 06:19:17;;;;;;;23.63;4.70;;;;;;;;;;5114923;28;20405;-78
2024/02/01 06:21:43;;;;;;;15.07;2.80;;;;;;;;;;5098761;28;20457;-82
2024/02/01 06:24:12;;;;;;;13.03;3.03;;;;;;;;;;5115330;28;20474;-76
2024/02/01 06:26:38;;;;;;;27.27;5.40;;;;;;;;;;5115967;28;20409;-86
2024/02/01 06:29:10;;;;;;;16.77;2.83;;;;;;;;;;5114966;28;20446;-76
2024/02/01 06:31:40;;;;;;;19.50;4.10;;;;;;;;;;5096092;28;20521;-82
2024/02/01 06:34:06;;;;;;;17.73;2.80;;;;;;;;;;5106007;28;20410;-76
2024/02/01 06:36:36;;;;;;;19.23;7.00;;;;;;;;;;5109248;28;20514;-76
2024/02/01 06:41:41;;;;;;;22.07;4.40;;;;;;;;;;5094695;28;20414;-77
2024/02/01 06:52:13;;;;;;;16.80;3.20;;;;;;;;;;5114670;28;20512;-76
2024/02/01 06:54:49;;;;;;;21.07;3.67;;;;;;;;;;5114496;28;20398;-85
2024/02/01 06:57:18;;;;;;;25.53;4.20;;;;;;;;;;5114587;28;20899;-77
2024/02/01 07:00:06;;;;;;;22.57;4.67;;;;;;;;;;5096194;28;20502;-76
2024/02/01 07:02:47;;;;;;;14.20;3.40;;;;;;;;;;5092695;28;20466;-76
2024/02/01 07:05:21;;;;;;;22.00;3.60;;;;;;;;;;5090229;28;20835;-77
2024/02/01 07:07:50;;;;;;;16.40;2.90;;;;;;;;;;5090949;28;20403;-76
2024/02/01 07:10:18;;;;;;;29.70;6.40;;;;;;;;;;5093089;28;20870;-75
2024/02/01 07:13:03;;;;;;;17.93;4.07;;;;;;;;;;5090499;28;20418;-77
2024/02/01 07:18:14;;;;;;;20.97;3.47;;;;;;;;;;5092981;28;20423;-78
2024/02/01 07:20:50;;;;;;;15.03;2.87;;;;;;;;;;5092730;28;20395;-77
2024/02/01 07:25:49;;;;;;;20.63;3.90;;;;;;;;;;5090779;28;20477;-77
2024/02/01 07:58:29;;;;;;;19.83;3.70;;;;;;;;;;5088540;28;20902;-77
2024/02/01 08:00:56;;;;;;;29.83;3.40;;;;;;;;;;5075912;28;20418;-90
2024/02/01 08:08:37;;;;;;;20.53;4.23;;;;;;;;;;5092265;28;20396;-92
2024/02/01 08:11:03;;;;;;;13.17;2.30;;;;;;;;;;5093050;28;20419;-80
2024/02/01 08:13:29;;;;;;;15.83;3.07;;;;;;;;;;5093096;28;20405;-84
2024/02/01 08:15:56;;;;;;;17.77;2.93;;;;;;;;;;5093804;28;20962;-82
2024/02/01 08:18:26;;;;;;;21.50;4.93;;;;;;;;;;5092100;28;20461;-77
2024/02/01 08:20:52;;;;;;;10.50;2.50;;;;;;;;;;5093077;28;20767;-79
2024/02/01 08:23:21;;;;;;;17.60;3.90;;;;;;;;;;5092746;28;20414;-87
2024/02/01 08:25:47;;;;;;;12.43;2.73;;;;;;;;;;5093691;28;20463;-77
2024/02/01 08:28:14;;;;;;;16.70;3.13;;;;;;;;;;5092786;28;20782;-77
2024/02/01 08:30:41;;;;;;;26.47;4.80;;;;;;;;;;5092502;28;20468;-78
2024/02/01 08:33:15;;;;;;;17.97;3.67;;;;;;;;;;5092065;28;20417;-78
2024/02/01 08:35:41;;;;;;;18.90;3.80;;;;;;;;;;5093660;28;20419;-76
2024/02/01 08:38:08;;;;;;;21.10;5.13;;;;;;;;;;5077383;28;20404;-89
2024/02/01 08:40:39;;;;;;;14.03;2.43;;;;;;;;;;5097022;28;20770;-79
2024/02/01 08:43:10;;;;;;;15.23;2.93;;;;;;;;;;5095567;28;20411;-74
2024/02/01 08:45:38;;;;;;;24.90;3.97;;;;;;;;;;5096569;28;20462;-90
2024/02/01 08:48:05;;;;;;;19.00;3.37;;;;;;;;;;5093838;28;20810;-87
2024/02/01 08:50:31;;;;;;;23.33;3.53;;;;;;;;;;5097409;28;20791;-89
2024/02/01 08:52:57;;;;;;;15.60;2.60;;;;;;;;;;5096878;28;20418;-77
2024/02/01 08:55:23;;;;;;;21.27;2.97;;;;;;;;;;5078354;28;20415;-90
2024/02/01 08:57:49;;;;;;;16.03;2.80;;;;;;;;;;5096765;28;20918;-93
2024/02/01 09:00:25;;;;;;;12.27;3.47;;;;;;;;;;5072627;28;20419;-87
2024/02/01 09:03:05;;;;;;;19.67;3.53;;;;;;;;;;5091981;28;20419;-78
2024/02/01 09:05:32;;;;;;;20.20;3.90;;;;;;;;;;5079896;28;20467;-90
2024/02/01 09:07:59;;;;;;;18.47;3.17;;;;;;;;;;5091771;28;20439;-78
2024/02/01 09:10:25;;;;;;;14.23;3.67;;;;;;;;;;5095522;28;20749;-87
2024/02/01 09:12:51;;;;;;;16.23;3.47;;;;;;;;;;5085847;28;20417;-89
2024/02/01 09:15:17;;;;;;;15.97;3.90;;;;;;;;;;5096483;28;20178;-81
2024/02/01 09:17:46;;;;;;;18.70;4.20;;;;;;;;;;5077419;28;20452;-77
2024/02/01 09:20:18;;;;;;;16.40;2.97;;;;;;;;;;5087414;28;20627;-81
2024/02/01 09:22:53;;;;;;;23.57;3.77;;;;;;;;;;5095558;28;20407;-79
2024/02/01 09:25:20;;;;;;;16.53;4.07;;;;;;;;;;5078094;28;20482;-88
2024/02/01 09:27:46;;;;;;;14.17;3.70;;;;;;;;;;5095874;28;20414;-85
2024/02/01 09:30:12;;;;;;;20.27;3.20;;;;;;;;;;5101903;28;20999;-79
2024/02/01 09:32:39;;;;;;;21.97;4.97;;;;;;;;;;5102865;28;20414;-76
2024/02/01 09:35:05;;;;;;;19.70;4.83;;;;;;;;;;5099018;28;20488;-76
2024/02/01 09:37:31;;;;;;;19.23;3.70;;;;;;;;;;5097648;28;20468;-81
2024/02/01 09:40:00;;;;;;;14.13;2.50;;;;;;;;;;5097520;28;20405;-78
2024/02/01 09:42:26;;;;;;;27.37;5.27;;;;;;;;;;5096060;28;20400;-77
2024/02/01 09:44:56;;;;;;;17.70;3.77;;;;;;;;;;5095506;28;20472;-78
2024/02/01 09:47:24;;;;;;;14.20;2.83;;;;;;;;;;5094495;28;20503;-79
2024/02/01 09:49:50;;;;;;;24.10;4.40;;;;;;;;;;5094360;28;20402;-78
2024/02/01 09:52:16;;;;;;;20.47;4.43;;;;;;;;;;5094567;28;20395;-78
2024/02/01 09:54:46;;;;;;;23.33;5.23;;;;;;;;;;5094129;28;20414;-80
2024/02/01 09:57:15;;;;;;;26.63;6.00;;;;;;;;;;5094238;28;20422;-78
2024/02/01 09:59:42;;;;;;;21.60;3.27;;;;;;;;;;5094233;28;20411;-80
2024/02/01 10:02:09;;;;;;;15.20;2.30;;;;;;;;;;5073197;28;20404;-78
2024/02/01 10:04:35;;;;;;;17.93;4.10;;;;;;;;;;5075988;28;21095;-80
2024/02/01 10:07:02;;;;;;;17.17;3.60;;;;;;;;;;5067871;28;20507;-78
2024/02/01 10:09:34;;;;;;;20.93;4.17;;;;;;;;;;5094035;28;20401;-77
2024/02/01 10:12:00;;;;;;;16.10;4.23;;;;;;;;;;5094094;28;20848;-78
2024/02/01 10:14:35;;;;;;;25.73;3.77;;;;;;;;;;5093818;28;20402;-79
2024/02/01 10:17:07;;;;;;;19.93;4.10;;;;;;;;;;5093628;28;20410;-79
2024/02/01 10:19:37;;;;;;;16.73;2.73;;;;;;;;;;5093833;28;20768;-77
2024/02/01 10:22:10;;;;;;;20.27;3.13;;;;;;;;;;5093876;28;20413;-84
2024/02/01 10:24:45;;;;;;;22.70;4.10;;;;;;;;;;5093765;28;20453;-76
2024/02/01 10:27:12;;;;;;;19.90;3.30;;;;;;;;;;5091765;28;20420;-79
2024/02/01 10:29:40;;;;;;;18.70;3.10;;;;;;;;;;5093703;28;20443;-79
2024/02/01 10:32:12;;;;;;;17.50;4.40;;;;;;;;;;5090767;28;20467;-77
2024/02/01 10:34:39;;;;;;;21.20;3.57;;;;;;;;;;5093892;28;20750;-85
2024/02/01 10:37:07;;;;;;;24.50;3.73;;;;;;;;;;5093535;28;20766;-81
2024/02/01 10:39:41;;;;;;;25.63;3.80;;;;;;;;;;5075377;28;20417;-77
2024/02/01 10:42:08;;;;;;;18.07;3.70;;;;;;;;;;5090997;28;20492;-78
2024/02/01 10:44:39;;;;;;;21.00;4.37;;;;;;;;;;5095033;28;20460;-78
2024/02/01 10:47:15;;;;;;;15.80;3.37;;;;;;;;;;5094931;28;20415;-84
2024/02/01 10:49:44;;;;;;;23.37;4.80;;;;;;;;;;5093670;28;20399;-84
2024/02/01 10:52:11;;;;;;;16.27;3.77;;;;;;;;;;5094310;28;20416;-88
2024/02/01 10:54:37;;;;;;;18.07;3.50;;;;;;;;;;5094075;28;20409;-77
2024/02/01 10:57:07;;;;;;;19.47;3.20;;;;;;;;;;5093896;28;20405;-82
2024/02/01 10:59:33;;;;;;;22.17;6.10;;;;;;;;;;5087111;28;20426;-78
2024/02/01 11:02:03;;;;;;;15.03;3.20;;;;;;;;;;5093201;28;20655;-79
2024/02/01 11:04:36;;;;;;;17.97;3.37;;;;;;;;;;5093817;28;20515;-81
2024/02/01 11:07:02;;;;;;;20.77;4.17;;;;;;;;;;5093836;28;20428;-80
2024/02/01 11:09:29;;;;;;;24.77;3.40;;;;;;;;;;5066171;28;20411;-79
2024/02/01 11:11:55;;;;;;;22.23;3.37;;;;;;;;;;5090470;28;20421;-81
2024/02/01 11:14:22;;;;;;;16.20;4.03;;;;;;;;;;5092806;28;20398;-86
2024/02/01 11:16:51;;;;;;;20.87;4.50;;;;;;;;;;5092942;28;20465;-81
2024/02/01 11:19:25;;;;;;;19.87;4.00;;;;;;;;;;5084073;28;20452;-78
2024/02/01 11:21:54;;;;;;;15.83;2.80;;;;;;;;;;5092750;28;20422;-79
2024/02/01 11:24:21;;;;;;;13.10;2.73;;;;;;;;;;5093545;28;20446;-80
2024/02/01 11:26:47;;;;;;;14.13;2.80;;;;;;;;;;5092724;28;20502;-89
2024/02/01 11:29:18;;;;;;;27.17;4.43;;;;;;;;;;5092373;28;20467;-82
2024/02/01 11:31:45;;;;;;;16.33;2.97;;;;;;;;;;5092168;28;20548;-78
2024/02/01 11:34:15;;;;;;;17.43;3.33;;;;;;;;;;5089764;28;20406;-78
2024/02/01 11:36:43;;;;;;;14.37;3.73;;;;;;;;;;5092676;28;20418;-87
2024/02/01 11:39:11;;;;;;;17.03;2.50;;;;;;;;;;5092513;28;20447;-83
2024/02/01 11:41:37;;;;;;;12.77;2.60;;;;;;;;;;5093578;28;20765;-90
2024/02/01 11:44:04;;;;;;;18.73;3.97;;;;;;;;;;5075537;28;20411;-90
2024/02/01 11:46:30;;;;;;;15.80;2.60;;;;;;;;;;5074373;28;20528;-80
2024/02/01 11:48:56;;;;;;;19.17;3.97;;;;;;;;;;5093362;28;20517;-80
2024/02/01 11:51:24;;;;;;;21.70;3.90;;;;;;;;;;5092529;28;20948;-79
2024/02/01 11:53:51;;;;;;;14.83;3.57;;;;;;;;;;5092495;28;21222;-80
2024/02/01 11:56:18;;;;;;;21.80;3.50;;;;;;;;;;5092649;28;20944;-79
2024/02/01 11:58:46;;;;;;;18.27;3.90;;;;;;;;;;5092952;28;20417;-83
2024/02/01 12:01:12;;;;;;;17.17;2.70;;;;;;;;;;5092228;28;20902;-82
2024/02/01 12:03:46;;;;;;;13.67;3.80;;;;;;;;;;5092690;28;20504;-79
2024/02/01 12:06:13;;;;;;;13.40;3.23;;;;;;;;;;5095021;28;20990;-78
2024/02/01 12:08:40;;;;;;;19.07;3.77;;;;;;;;;;5079181;28;20417;-79
2024/02/01 12:11:07;;;;;;;20.63;3.20;;;;;;;;;;5094788;28;20505;-78
2024/02/01 12:13:33;;;;;;;13.17;2.87;;;;;;;;;;5099717;28;20762;-79
2024/02/01 12:15:59;;;;;;;13.30;2.17;;;;;;;;;;5079844;28;20453;-76
2024/02/01 12:18:25;;;;;;;13.70;2.83;;;;;;;;;;5097397;28;20408;-74
2024/02/01 12:20:52;;;;;;;15.37;3.20;;;;;;;;;;5098748;28;20433;-75
2024/02/01 12:23:18;;;;;;;19.60;2.87;;;;;;;;;;5099969;28;20803;-78
2024/02/01 12:25:45;;;;;;;19.00;3.20;;;;;;;;;;5097604;28;20613;-78
2024/02/01 12:28:11;;;;;;;12.77;2.73;;;;;;;;;;5098128;28;20458;-77
2024/02/01 12:30:37;;;;;;;14.67;3.70;;;;;;;;;;5096313;28;21026;-86
2024/02/01 12:33:03;;;;;;;13.07;3.40;;;;;;;;;;5095946;28;20400;-78
2024/02/01 12:35:29;;;;;;;12.20;2.40;;;;;;;;;;5095959;28;20424;-78
2024/02/01 12:37:55;;;;;;;14.20;2.70;;;;;;;;;;5096010;28;20409;-79
2024/02/01 12:40:21;;;;;;;14.63;2.03;;;;;;;;;;5095936;28;20172;-77
2024/02/01 12:42:48;;;;;;;12.20;2.73;;;;;;;;;;5095887;28;20487;-79
2024/02/01 12:45:18;;;;;;;11.90;2.40;;;;;;;;;;5092924;28;20458;-78
2024/02/01 12:47:48;;;;;;;16.13;3.60;;;;;;;;;;5095401;28;20418;-78
2024/02/01 12:50:15;;;;;;;17.07;2.83;;;;;;;;;;5095853;28;20417;-77
2024/02/01 12:52:41;;;;;;;17.03;3.10;;;;;;;;;;5095925;28;20899;-77
2024/02/01 12:55:08;;;;;;;17.53;2.50;;;;;;;;;;5095676;28;20418;-78
2024/02/01 12:57:34;;;;;;;16.37;3.23;;;;;;;;;;5095468;28;20430;-78
2024/02/01 13:00:00;;;;;;;15.87;4.67;;;;;;;;;;5095622;28;20945;-77
2024/02/01 13:02:26;;;;;;;13.90;2.50;;;;;;;;;;5094964;28;20493;-79
2024/02/01 13:04:56;;;;;;;11.80;2.17;;;;;;;;;;5095212;28;20484;-76
2024/02/01 13:07:22;;;;;;;16.07;3.20;;;;;;;;;;5095340;28;20423;-75
2024/02/01 13:09:48;;;;;;;12.60;1.90;;;;;;;;;;5096844;28;20542;-87
2024/02/01 13:12:23;;;;;;;12.77;2.40;;;;;;;;;;5154246;22;20489;-84
2024/02/01 13:14:59;;;;;;;15.20;3.30;;;;;;;;;;5081490;28;20417;-77
2024/02/01 13:17:35;;;;;;;18.13;1.73;;;;;;;;;;5062308;28;20433;-77
2024/02/01 13:20:03;;;;;;;10.27;4.10;;;;;;;;;;5074288;28;20402;-78
2024/02/01 13:22:29;;;;;;;16.73;3.17;;;;;;;;;;5075190;28;20409;-79
2024/02/01 13:24:55;;;;;;;14.23;2.83;;;;;;;;;;5073043;28;20467;-79
2024/02/01 13:27:21;;;;;;;16.50;3.00;;;;;;;;;;5075389;28;20409;-76
2024/02/01 13:29:47;;;;;;;16.40;2.60;;;;;;;;;;5075869;28;20831;-77
2024/02/01 13:32:14;;;;;;;16.20;2.63;;;;;;;;;;5075842;28;20408;-80
2024/02/01 13:34:41;;;;;;;16.30;3.57;;;;;;;;;;5074509;28;20424;-79
2024/02/01 13:37:08;;;;;;;14.30;2.20;;;;;;;;;;5074583;28;20448;-80
2024/02/01 13:39:37;;;;;;;11.97;2.50;;;;;;;;;;5074231;28;20417;-76
2024/02/01 13:42:03;;;;;;;16.73;3.50;;;;;;;;;;5074423;28;20424;-76
2024/02/01 13:44:33;;;;;;;12.20;1.70;;;;;;;;;;5074032;28;20464;-77
2024/02/01 13:47:05;;;;;;;17.07;3.10;;;;;;;;;;5070849;28;20424;-83
2024/02/01 13:49:31;;;;;;;10.20;2.40;;;;;;;;;;5074240;28;20399;-81
2024/02/01 13:51:58;;;;;;;14.63;3.30;;;;;;;;;;5072536;28;20424;-79
2024/02/01 13:54:24;;;;;;;14.57;3.73;;;;;;;;;;5072981;28;20475;-77
2024/02/01 13:56:50;;;;;;;15.10;2.97;;;;;;;;;;5074374;28;20574;-78
2024/02/01 13:59:16;;;;;;;18.27;2.57;;;;;;;;;;5071749;28;20408;-77
2024/02/01 14:01:42;;;;;;;17.87;2.70;;;;;;;;;;5074175;28;20418;-78
2024/02/01 14:04:08;;;;;;;13.43;2.47;;;;;;;;;;5074105;28;20408;-81
2024/02/01 14:06:34;;;;;;;16.63;3.60;;;;;;;;;;5073980;28;20421;-78
2024/02/01 14:09:09;;;;;;;14.07;4.00;;;;;;;;;;5073938;28;20755;-76
2024/02/01 14:11:39;;;;;;;11.60;1.87;;;;;;;;;;5053135;28;20469;-79
2024/02/01 14:14:06;;;;;;;15.03;2.60;;;;;;;;;;5056116;28;20512;-82
2024/02/01 14:16:32;;;;;;;16.30;2.97;;;;;;;;;;5073623;28;20491;-79
2024/02/01 14:18:58;;;;;;;18.80;2.53;;;;;;;;;;5073974;28;20404;-76
2024/02/01 14:21:24;;;;;;;13.37;5.03;;;;;;;;;;5074405;28;20505;-77
2024/02/01 14:23:53;;;;;;;22.87;3.20;;;;;;;;;;5074399;28;20923;-77
2024/02/01 14:26:20;;;;;;;12.63;1.40;;;;;;;;;;5074397;28;20471;-78
2024/02/01 14:28:46;;;;;;;17.93;3.97;;;;;;;;;;5056947;28;20771;-77
2024/02/01 14:31:12;;;;;;;17.17;2.17;;;;;;;;;;5074203;28;20888;-78
2024/02/01 14:33:38;;;;;;;16.60;2.70;;;;;;;;;;5074466;28;20469;-77
2024/02/01 14:36:05;;;;;;;5.40;1.30;;;;;;;;;;5055416;28;20519;-87
2024/02/01 14:38:31;;;;;;;15.00;2.67;;;;;;;;;;5073498;28;20489;-78
2024/02/01 14:40:57;;;;;;;13.43;2.90;;;;;;;;;;5074040;28;20407;-77
2024/02/01 14:43:24;;;;;;;10.83;1.73;;;;;;;;;;5074026;28;20424;-77
2024/02/01 14:45:52;;;;;;;19.50;3.20;;;;;;;;;;5073719;28;20468;-81
2024/02/01 14:48:19;;;;;;;18.47;2.60;;;;;;;;;;5072694;28;20429;-81
2024/02/01 14:50:45;;;;;;;15.03;3.43;;;;;;;;;;5073892;28;20415;-77
2024/02/01 14:53:11;;;;;;;14.00;2.13;;;;;;;;;;5073851;28;20753;-77
2024/02/01 14:55:37;;;;;;;18.23;2.73;;;;;;;;;;5073834;28;20990;-82
2024/02/01 14:58:04;;;;;;;17.07;2.00;;;;;;;;;;5074003;28;20517;-77
2024/02/01 15:00:32;;;;;;;13.93;2.10;;;;;;;;;;5074244;28;20909;-79
2024/02/01 15:02:58;;;;;;;14.37;3.17;;;;;;;;;;5073417;28;20979;-79
2024/02/01 15:05:25;;;;;;;10.37;1.70;;;;;;;;;;5074065;28;20560;-85
2024/02/01 15:07:51;;;;;;;18.27;2.80;;;;;;;;;;5073664;28;20410;-77
2024/02/01 15:10:18;;;;;;;20.03;3.27;;;;;;;;;;5073614;28;20411;-82
2024/02/01 15:12:47;;;;;;;16.90;3.60;;;;;;;;;;5072159;28;20833;-76
2024/02/01 15:15:13;;;;;;;11.70;2.67;;;;;;;;;;5077341;28;20412;-77
2024/02/01 15:17:39;;;;;;;13.03;2.87;;;;;;;;;;5084084;28;20416;-77
2024/02/01 15:20:06;;;;;;;10.23;1.70;;;;;;;;;;5074869;28;20512;-77
2024/02/01 15:22:36;;;;;;;10.57;1.93;;;;;;;;;;5073090;28;20427;-83